sensor_id;sensor_type;location;lat;lon;timestamp;temperature;humidity
19908;DHT22;10116;53.112;7.356;2023-09-30T00:01:09;25.60;99.90
19908;DHT22;10116;53.112;7.356;2023-09-30T00:03:36;25.60;99.90
19908;DHT22;10116;53.112;7.356;2023-09-30T00:06:02;25.60;99.90
19908;DHT22;10116;53.112;7.356;2023-09-30T00:08:29;25.60;99.90
19908;DHT22;10116;53.112;7.356;2023-09-30T00:10:55;25.60;99.90
19908;DHT22;10116;53.112;7.356;2023-09-30T00:13:21;25.60;99.90
19908;DHT22;10116;53.112;7.356;2023-09-30T00:15:47;25.60;99.90
19908;DHT22;10116;53.112;7.356;2023-09-30T00:18:13;25.60;99.90
19908;DHT22;10116;53.112;7.356;2023-09-30T00:20:39;25.60;99.90
19908;DHT22;10116;53.112;7.356;2023-09-30T00:23:05;25.50;99.90
19908;DHT22;10116;53.112;7.356;2023-09-30T00:25:31;25.50;99.90
19908;DHT22;10116;53.112;7.356;2023-09-30T00:27:57;25.50;99.90
19908;DHT22;10116;53.112;7.356;2023-09-30T00:30:23;25.50;99.90
19908;DHT22;10116;53.112;7.356;2023-09-30T00:32:49;25.50;99.90
19908;DHT22;10116;53.112;7.356;2023-09-30T00:35:14;25.50;99.90
19908;DHT22;10116;53.112;7.356;2023-09-30T00:37:42;25.50;99.90
19908;DHT22;10116;53.112;7.356;2023-09-30T00:40:08;25.50;99.90
19908;DHT22;10116;53.112;7.356;2023-09-30T00:42:40;25.50;99.90
19908;DHT22;10116;53.112;7.356;2023-09-30T00:45:07;25.50;99.90
19908;DHT22;10116;53.112;7.356;2023-09-30T00:47:35;25.50;99.90
19908;DHT22;10116;53.112;7.356;2023-09-30T00:50:01;25.50;99.90
19908;DHT22;10116;53.112;7.356;2023-09-30T00:52:30;25.50;99.90
19908;DHT22;10116;53.112;7.356;2023-09-30T00:54:57;25.50;99.90
19908;DHT22;10116;53.112;7.356;2023-09-30T00:57:23;25.50;99.90
19908;DHT22;10116;53.112;7.356;2023-09-30T00:59:50;25.40;99.90
19908;DHT22;10116;53.112;7.356;2023-09-30T01:02:17;25.40;99.90
19908;DHT22;10116;53.112;7.356;2023-09-30T01:04:44;25.40;99.90
19908;DHT22;10116;53.112;7.356;2023-09-30T01:07:09;25.40;99.90
19908;DHT22;10116;53.112;7.356;2023-09-30T01:09:36;25.40;99.90
19908;DHT22;10116;53.112;7.356;2023-09-30T01:12:02;25.40;99.90
19908;DHT22;10116;53.112;7.356;2023-09-30T01:14:33;25.40;99.90
19908;DHT22;10116;53.112;7.356;2023-09-30T01:17:06;25.40;99.90
19908;DHT22;10116;53.112;7.356;2023-09-30T01:19:35;25.40;99.90
19908;DHT22;10116;53.112;7.356;2023-09-30T01:22:01;25.40;99.90
19908;DHT22;10116;53.112;7.356;2023-09-30T01:24:37;25.40;99.90
19908;DHT22;10116;53.112;7.356;2023-09-30T01:27:03;25.40;99.90
19908;DHT22;10116;53.112;7.356;2023-09-30T01:29:29;25.40;99.90
19908;DHT22;10116;53.112;7.356;2023-09-30T01:31:54;25.40;99.90
19908;DHT22;10116;53.112;7.356;2023-09-30T01:34:21;25.40;99.90
19908;DHT22;10116;53.112;7.356;2023-09-30T01:36:46;25.40;99.90
19908;DHT22;10116;53.112;7.356;2023-09-30T01:39:13;25.40;99.90
19908;DHT22;10116;53.112;7.356;2023-09-30T01:41:39;25.40;99.90
19908;DHT22;10116;53.112;7.356;2023-09-30T01:44:06;25.40;99.90
19908;DHT22;10116;53.112;7.356;2023-09-30T01:46:31;25.40;99.90
19908;DHT22;10116;53.112;7.356;2023-09-30T01:48:57;25.40;99.90
19908;DHT22;10116;53.112;7.356;2023-09-30T01:51:23;25.30;99.90
19908;DHT22;10116;53.112;7.356;2023-09-30T01:53:49;25.30;99.90
19908;DHT22;10116;53.112;7.356;2023-09-30T01:56:15;25.40;99.90
19908;DHT22;10116;53.112;7.356;2023-09-30T01:58:40;25.40;99.90
19908;DHT22;10116;53.112;7.356;2023-09-30T02:01:06;25.40;99.90
19908;DHT22;10116;53.112;7.356;2023-09-30T02:03:32;25.30;99.90
19908;DHT22;10116;53.112;7.356;2023-09-30T02:05:58;25.30;99.90
19908;DHT22;10116;53.112;7.356;2023-09-30T02:08:24;25.30;99.90
19908;DHT22;10116;53.112;7.356;2023-09-30T02:10:50;25.30;99.90
19908;DHT22;10116;53.112;7.356;2023-09-30T02:13:19;25.30;99.90
19908;DHT22;10116;53.112;7.356;2023-09-30T02:15:45;25.30;99.90
19908;DHT22;10116;53.112;7.356;2023-09-30T02:18:11;25.30;99.90
19908;DHT22;10116;53.112;7.356;2023-09-30T02:20:37;25.30;99.90
19908;DHT22;10116;53.112;7.356;2023-09-30T02:23:09;25.30;99.90
19908;DHT22;10116;53.112;7.356;2023-09-30T02:25:37;25.30;99.90
19908;DHT22;10116;53.112;7.356;2023-09-30T02:28:03;25.30;99.90
19908;DHT22;10116;53.112;7.356;2023-09-30T02:30:29;25.30;99.90
19908;DHT22;10116;53.112;7.356;2023-09-30T02:32:56;25.30;99.90
19908;DHT22;10116;53.112;7.356;2023-09-30T02:35:22;25.30;99.90
19908;DHT22;10116;53.112;7.356;2023-09-30T02:37:48;25.30;99.90
19908;DHT22;10116;53.112;7.356;2023-09-30T02:40:17;25.30;99.90
19908;DHT22;10116;53.112;7.356;2023-09-30T02:42:43;25.30;99.90
19908;DHT22;10116;53.112;7.356;2023-09-30T02:45:10;25.20;99.90
19908;DHT22;10116;53.112;7.356;2023-09-30T02:47:37;25.20;99.90
19908;DHT22;10116;53.112;7.356;2023-09-30T02:50:07;25.20;99.90
19908;DHT22;10116;53.112;7.356;2023-09-30T02:52:39;25.20;99.90
19908;DHT22;10116;53.112;7.356;2023-09-30T02:55:08;25.20;99.90
19908;DHT22;10116;53.112;7.356;2023-09-30T02:57:33;25.20;99.90
19908;DHT22;10116;53.112;7.356;2023-09-30T03:00:02;25.20;99.90
19908;DHT22;10116;53.112;7.356;2023-09-30T03:02:37;25.20;99.90
19908;DHT22;10116;53.112;7.356;2023-09-30T03:05:03;25.20;99.90
19908;DHT22;10116;53.112;7.356;2023-09-30T03:07:30;25.20;99.90
19908;DHT22;10116;53.112;7.356;2023-09-30T03:09:55;25.20;99.90
19908;DHT22;10116;53.112;7.356;2023-09-30T03:12:21;25.20;99.90
19908;DHT22;10116;53.112;7.356;2023-09-30T03:14:47;25.20;99.90
19908;DHT22;10116;53.112;7.356;2023-09-30T03:17:13;25.20;99.90
19908;DHT22;10116;53.112;7.356;2023-09-30T03:19:39;25.20;99.90
19908;DHT22;10116;53.112;7.356;2023-09-30T03:22:05;25.20;99.90
19908;DHT22;10116;53.112;7.356;2023-09-30T03:24:37;25.20;99.90
19908;DHT22;10116;53.112;7.356;2023-09-30T03:27:02;25.20;99.90
19908;DHT22;10116;53.112;7.356;2023-09-30T03:29:28;25.20;99.90
19908;DHT22;10116;53.112;7.356;2023-09-30T03:31:54;25.20;99.90
19908;DHT22;10116;53.112;7.356;2023-09-30T03:34:19;25.20;99.90
19908;DHT22;10116;53.112;7.356;2023-09-30T03:36:45;25.30;99.90
19908;DHT22;10116;53.112;7.356;2023-09-30T03:39:11;25.30;99.90
19908;DHT22;10116;53.112;7.356;2023-09-30T03:41:40;25.40;99.90
19908;DHT22;10116;53.112;7.356;2023-09-30T03:44:06;25.40;99.90
19908;DHT22;10116;53.112;7.356;2023-09-30T03:46:31;25.40;99.90
19908;DHT22;10116;53.112;7.356;2023-09-30T03:48:57;25.40;99.90
19908;DHT22;10116;53.112;7.356;2023-09-30T03:51:24;25.40;99.90
19908;DHT22;10116;53.112;7.356;2023-09-30T03:53:51;25.40;99.90
19908;DHT22;10116;53.112;7.356;2023-09-30T03:56:16;25.50;99.90
19908;DHT22;10116;53.112;7.356;2023-09-30T03:58:44;25.50;99.90
19908;DHT22;10116;53.112;7.356;2023-09-30T04:01:10;25.50;99.90
19908;DHT22;10116;53.112;7.356;2023-09-30T04:03:39;25.50;99.90
19908;DHT22;10116;53.112;7.356;2023-09-30T04:06:05;25.50;99.90
19908;DHT22;10116;53.112;7.356;2023-09-30T04:08:35;25.50;99.90
19908;DHT22;10116;53.112;7.356;2023-09-30T04:11:01;25.50;99.90
19908;DHT22;10116;53.112;7.356;2023-09-30T04:13:28;25.50;99.90
19908;DHT22;10116;53.112;7.356;2023-09-30T04:15:55;25.50;99.90
19908;DHT22;10116;53.112;7.356;2023-09-30T04:18:21;25.50;99.90
19908;DHT22;10116;53.112;7.356;2023-09-30T04:20:48;25.50;99.90
19908;DHT22;10116;53.112;7.356;2023-09-30T04:23:14;25.50;99.90
19908;DHT22;10116;53.112;7.356;2023-09-30T04:25:40;25.50;99.90
19908;DHT22;10116;53.112;7.356;2023-09-30T04:28:08;25.50;99.90
19908;DHT22;10116;53.112;7.356;2023-09-30T04:30:35;25.50;99.90
19908;DHT22;10116;53.112;7.356;2023-09-30T04:33:01;25.50;99.90
19908;DHT22;10116;53.112;7.356;2023-09-30T04:35:29;25.50;99.90
19908;DHT22;10116;53.112;7.356;2023-09-30T04:37:56;25.50;99.90
19908;DHT22;10116;53.112;7.356;2023-09-30T04:40:22;25.50;99.90
19908;DHT22;10116;53.112;7.356;2023-09-30T04:42:48;25.60;99.90
19908;DHT22;10116;53.112;7.356;2023-09-30T04:45:15;25.50;99.90
19908;DHT22;10116;53.112;7.356;2023-09-30T04:47:46;25.50;99.90
19908;DHT22;10116;53.112;7.356;2023-09-30T04:50:14;25.50;99.90
19908;DHT22;10116;53.112;7.356;2023-09-30T04:52:42;25.50;99.90
19908;DHT22;10116;53.112;7.356;2023-09-30T04:55:08;25.50;99.90
19908;DHT22;10116;53.112;7.356;2023-09-30T04:57:34;25.50;99.90
19908;DHT22;10116;53.112;7.356;2023-09-30T05:00:00;25.50;99.90
19908;DHT22;10116;53.112;7.356;2023-09-30T05:02:28;25.50;99.90
19908;DHT22;10116;53.112;7.356;2023-09-30T05:04:53;25.50;99.90
19908;DHT22;10116;53.112;7.356;2023-09-30T05:07:20;25.60;99.90
19908;DHT22;10116;53.112;7.356;2023-09-30T05:09:49;25.60;99.90
19908;DHT22;10116;53.112;7.356;2023-09-30T05:12:15;25.60;99.90
19908;DHT22;10116;53.112;7.356;2023-09-30T05:14:41;25.60;99.90
19908;DHT22;10116;53.112;7.356;2023-09-30T05:17:08;25.60;99.90
19908;DHT22;10116;53.112;7.356;2023-09-30T05:19:33;25.60;99.90
19908;DHT22;10116;53.112;7.356;2023-09-30T05:21:59;25.70;99.90
19908;DHT22;10116;53.112;7.356;2023-09-30T05:24:27;25.60;99.90
19908;DHT22;10116;53.112;7.356;2023-09-30T05:26:53;25.70;99.90
19908;DHT22;10116;53.112;7.356;2023-09-30T05:29:19;25.70;99.90
19908;DHT22;10116;53.112;7.356;2023-09-30T05:31:45;25.70;99.90
19908;DHT22;10116;53.112;7.356;2023-09-30T05:34:11;25.70;99.90
19908;DHT22;10116;53.112;7.356;2023-09-30T05:36:37;25.70;99.90
19908;DHT22;10116;53.112;7.356;2023-09-30T05:39:02;25.70;99.90
19908;DHT22;10116;53.112;7.356;2023-09-30T05:41:33;25.70;99.90
19908;DHT22;10116;53.112;7.356;2023-09-30T05:43:58;25.70;99.90
19908;DHT22;10116;53.112;7.356;2023-09-30T05:46:25;25.70;99.90
19908;DHT22;10116;53.112;7.356;2023-09-30T05:48:52;25.60;99.90
19908;DHT22;10116;53.112;7.356;2023-09-30T05:51:18;25.60;99.90
19908;DHT22;10116;53.112;7.356;2023-09-30T05:53:44;25.70;99.90
19908;DHT22;10116;53.112;7.356;2023-09-30T05:56:10;25.60;99.90
19908;DHT22;10116;53.112;7.356;2023-09-30T05:58:36;25.60;99.90
19908;DHT22;10116;53.112;7.356;2023-09-30T06:01:08;25.60;99.90
19908;DHT22;10116;53.112;7.356;2023-09-30T06:03:36;25.60;99.90
19908;DHT22;10116;53.112;7.356;2023-09-30T06:06:11;25.60;99.90
19908;DHT22;10116;53.112;7.356;2023-09-30T06:08:38;25.60;99.90
19908;DHT22;10116;53.112;7.356;2023-09-30T06:11:04;25.60;99.90
19908;DHT22;10116;53.112;7.356;2023-09-30T06:13:29;25.60;99.90
19908;DHT22;10116;53.112;7.356;2023-09-30T06:15:57;25.60;99.90
19908;DHT22;10116;53.112;7.356;2023-09-30T06:18:23;25.60;99.90
19908;DHT22;10116;53.112;7.356;2023-09-30T06:20:49;25.60;99.90
19908;DHT22;10116;53.112;7.356;2023-09-30T06:23:16;25.60;99.90
19908;DHT22;10116;53.112;7.356;2023-09-30T06:25:42;25.60;99.90
19908;DHT22;10116;53.112;7.356;2023-09-30T06:28:08;25.60;99.90
19908;DHT22;10116;53.112;7.356;2023-09-30T06:30:34;25.60;99.90
19908;DHT22;10116;53.112;7.356;2023-09-30T06:33:00;25.60;99.90
19908;DHT22;10116;53.112;7.356;2023-09-30T06:35:27;25.60;99.90
19908;DHT22;10116;53.112;7.356;2023-09-30T06:37:53;25.60;99.90
19908;DHT22;10116;53.112;7.356;2023-09-30T06:40:19;25.60;99.90
19908;DHT22;10116;53.112;7.356;2023-09-30T06:42:45;25.60;99.90
19908;DHT22;10116;53.112;7.356;2023-09-30T06:45:11;25.70;99.90
19908;DHT22;10116;53.112;7.356;2023-09-30T06:47:40;25.70;99.90
19908;DHT22;10116;53.112;7.356;2023-09-30T06:50:13;25.70;99.90
19908;DHT22;10116;53.112;7.356;2023-09-30T06:52:42;25.70;99.90
19908;DHT22;10116;53.112;7.356;2023-09-30T06:55:11;25.80;99.90
19908;DHT22;10116;53.112;7.356;2023-09-30T06:57:39;25.80;99.90
19908;DHT22;10116;53.112;7.356;2023-09-30T07:00:06;25.80;99.90
19908;DHT22;10116;53.112;7.356;2023-09-30T07:02:35;25.80;99.90
19908;DHT22;10116;53.112;7.356;2023-09-30T07:05:06;25.80;99.90
19908;DHT22;10116;53.112;7.356;2023-09-30T07:07:32;25.80;99.90
19908;DHT22;10116;53.112;7.356;2023-09-30T07:09:58;25.80;99.90
19908;DHT22;10116;53.112;7.356;2023-09-30T07:12:24;25.80;99.90
19908;DHT22;10116;53.112;7.356;2023-09-30T07:14:49;25.80;99.90
19908;DHT22;10116;53.112;7.356;2023-09-30T07:17:15;25.80;99.90
19908;DHT22;10116;53.112;7.356;2023-09-30T07:19:40;25.80;99.90
19908;DHT22;10116;53.112;7.356;2023-09-30T07:22:06;25.80;99.90
19908;DHT22;10116;53.112;7.356;2023-09-30T07:24:32;25.80;99.90
19908;DHT22;10116;53.112;7.356;2023-09-30T07:26:58;25.80;99.90
19908;DHT22;10116;53.112;7.356;2023-09-30T07:29:24;25.80;99.90
19908;DHT22;10116;53.112;7.356;2023-09-30T07:31:50;25.80;99.90
19908;DHT22;10116;53.112;7.356;2023-09-30T07:34:16;25.80;99.90
19908;DHT22;10116;53.112;7.356;2023-09-30T07:36:42;25.80;99.90
19908;DHT22;10116;53.112;7.356;2023-09-30T07:39:08;25.80;99.90
19908;DHT22;10116;53.112;7.356;2023-09-30T07:41:37;25.80;99.90
19908;DHT22;10116;53.112;7.356;2023-09-30T07:44:03;25.80;99.90
19908;DHT22;10116;53.112;7.356;2023-09-30T07:46:29;25.80;99.90
19908;DHT22;10116;53.112;7.356;2023-09-30T07:48:54;25.80;99.90
19908;DHT22;10116;53.112;7.356;2023-09-30T07:51:20;25.80;99.90
19908;DHT22;10116;53.112;7.356;2023-09-30T07:53:46;25.80;99.90
19908;DHT22;10116;53.112;7.356;2023-09-30T07:56:12;25.80;99.90
19908;DHT22;10116;53.112;7.356;2023-09-30T07:58:38;25.80;99.90
19908;DHT22;10116;53.112;7.356;2023-09-30T08:01:04;25.80;99.90
19908;DHT22;10116;53.112;7.356;2023-09-30T08:03:30;25.80;99.90
19908;DHT22;10116;53.112;7.356;2023-09-30T08:05:56;25.80;99.90
19908;DHT22;10116;53.112;7.356;2023-09-30T08:08:22;25.90;99.90
19908;DHT22;10116;53.112;7.356;2023-09-30T08:10:50;25.90;99.90
19908;DHT22;10116;53.112;7.356;2023-09-30T08:13:15;25.90;99.90
19908;DHT22;10116;53.112;7.356;2023-09-30T08:15:43;25.90;99.90
19908;DHT22;10116;53.112;7.356;2023-09-30T08:18:08;25.90;99.90
19908;DHT22;10116;53.112;7.356;2023-09-30T08:20:34;25.90;99.90
19908;DHT22;10116;53.112;7.356;2023-09-30T08:23:00;25.90;99.90
19908;DHT22;10116;53.112;7.356;2023-09-30T08:25:25;25.90;99.90
19908;DHT22;10116;53.112;7.356;2023-09-30T08:27:51;25.90;99.90
19908;DHT22;10116;53.112;7.356;2023-09-30T08:30:17;25.90;99.90
19908;DHT22;10116;53.112;7.356;2023-09-30T08:32:43;25.90;99.90
19908;DHT22;10116;53.112;7.356;2023-09-30T08:35:09;26.00;99.90
19908;DHT22;10116;53.112;7.356;2023-09-30T08:37:35;25.90;99.90
19908;DHT22;10116;53.112;7.356;2023-09-30T08:40:01;25.90;99.90
19908;DHT22;10116;53.112;7.356;2023-09-30T08:42:29;25.90;99.90
19908;DHT22;10116;53.112;7.356;2023-09-30T08:44:58;25.90;99.90
19908;DHT22;10116;53.112;7.356;2023-09-30T08:47:28;25.90;99.90
19908;DHT22;10116;53.112;7.356;2023-09-30T08:49:54;25.90;99.90
19908;DHT22;10116;53.112;7.356;2023-09-30T08:52:23;25.90;99.90
19908;DHT22;10116;53.112;7.356;2023-09-30T08:54:50;25.90;99.90
19908;DHT22;10116;53.112;7.356;2023-09-30T08:57:19;25.90;99.90
19908;DHT22;10116;53.112;7.356;2023-09-30T08:59:46;25.90;99.90
19908;DHT22;10116;53.112;7.356;2023-09-30T09:02:12;25.90;99.90
19908;DHT22;10116;53.112;7.356;2023-09-30T09:04:37;25.90;99.90
19908;DHT22;10116;53.112;7.356;2023-09-30T09:07:03;25.90;99.90
19908;DHT22;10116;53.112;7.356;2023-09-30T09:09:29;25.90;99.90
19908;DHT22;10116;53.112;7.356;2023-09-30T09:11:54;25.90;99.90
19908;DHT22;10116;53.112;7.356;2023-09-30T09:14:41;25.90;99.90
19908;DHT22;10116;53.112;7.356;2023-09-30T09:17:08;25.90;99.90
19908;DHT22;10116;53.112;7.356;2023-09-30T09:19:34;25.80;99.90
19908;DHT22;10116;53.112;7.356;2023-09-30T09:22:01;25.90;99.90
19908;DHT22;10116;53.112;7.356;2023-09-30T09:24:34;25.90;99.90
19908;DHT22;10116;53.112;7.356;2023-09-30T09:27:07;25.90;99.90
19908;DHT22;10116;53.112;7.356;2023-09-30T09:29:34;25.80;99.90
19908;DHT22;10116;53.112;7.356;2023-09-30T09:32:12;25.80;99.90
19908;DHT22;10116;53.112;7.356;2023-09-30T09:34:39;25.80;99.90
19908;DHT22;10116;53.112;7.356;2023-09-30T09:37:18;25.80;99.90
19908;DHT22;10116;53.112;7.356;2023-09-30T09:39:52;25.80;99.90
19908;DHT22;10116;53.112;7.356;2023-09-30T09:42:31;25.80;99.90
19908;DHT22;10116;53.112;7.356;2023-09-30T09:45:02;25.80;99.90
19908;DHT22;10116;53.112;7.356;2023-09-30T09:47:29;25.80;99.90
19908;DHT22;10116;53.112;7.356;2023-09-30T09:49:57;25.80;99.90
19908;DHT22;10116;53.112;7.356;2023-09-30T09:52:24;25.80;99.90
19908;DHT22;10116;53.112;7.356;2023-09-30T09:54:50;25.80;99.90
19908;DHT22;10116;53.112;7.356;2023-09-30T09:57:17;25.80;99.90
19908;DHT22;10116;53.112;7.356;2023-09-30T09:59:44;25.80;99.90
19908;DHT22;10116;53.112;7.356;2023-09-30T10:02:15;25.70;99.90
19908;DHT22;10116;53.112;7.356;2023-09-30T10:04:45;25.70;99.90
19908;DHT22;10116;53.112;7.356;2023-09-30T10:07:34;25.70;99.90
19908;DHT22;10116;53.112;7.356;2023-09-30T10:10:01;25.80;99.90
19908;DHT22;10116;53.112;7.356;2023-09-30T10:12:28;25.80;99.90
19908;DHT22;10116;53.112;7.356;2023-09-30T10:15:00;25.90;99.90
19908;DHT22;10116;53.112;7.356;2023-09-30T10:20:31;25.90;99.90
19908;DHT22;10116;53.112;7.356;2023-09-30T10:26:14;26.00;99.90
19908;DHT22;10116;53.112;7.356;2023-09-30T10:28:42;26.00;99.90
19908;DHT22;10116;53.112;7.356;2023-09-30T10:31:21;26.00;99.90
19908;DHT22;10116;53.112;7.356;2023-09-30T10:36:35;26.00;99.90
19908;DHT22;10116;53.112;7.356;2023-09-30T10:39:03;26.10;99.90
19908;DHT22;10116;53.112;7.356;2023-09-30T10:46:51;26.10;99.90
19908;DHT22;10116;53.112;7.356;2023-09-30T10:51:53;26.00;99.90
19908;DHT22;10116;53.112;7.356;2023-09-30T10:56:49;26.10;99.90
19908;DHT22;10116;53.112;7.356;2023-09-30T10:59:22;26.00;99.90
19908;DHT22;10116;53.112;7.356;2023-09-30T11:01:49;26.00;99.90
19908;DHT22;10116;53.112;7.356;2023-09-30T11:04:14;26.00;99.90
19908;DHT22;10116;53.112;7.356;2023-09-30T11:06:41;26.00;99.90
19908;DHT22;10116;53.112;7.356;2023-09-30T11:09:08;26.00;99.90
19908;DHT22;10116;53.112;7.356;2023-09-30T11:11:44;25.90;99.90
19908;DHT22;10116;53.112;7.356;2023-09-30T11:16:43;25.90;99.90
19908;DHT22;10116;53.112;7.356;2023-09-30T11:19:09;25.90;99.90
19908;DHT22;10116;53.112;7.356;2023-09-30T11:21:35;25.90;99.90
19908;DHT22;10116;53.112;7.356;2023-09-30T11:24:01;25.90;99.90
19908;DHT22;10116;53.112;7.356;2023-09-30T11:26:30;25.90;99.90
19908;DHT22;10116;53.112;7.356;2023-09-30T11:29:11;25.90;99.90
19908;DHT22;10116;53.112;7.356;2023-09-30T11:31:38;25.90;99.90
19908;DHT22;10116;53.112;7.356;2023-09-30T11:34:04;25.90;99.90
19908;DHT22;10116;53.112;7.356;2023-09-30T11:36:34;25.90;99.90
19908;DHT22;10116;53.112;7.356;2023-09-30T11:39:00;26.00;99.90
19908;DHT22;10116;53.112;7.356;2023-09-30T11:41:35;26.00;99.90
19908;DHT22;10116;53.112;7.356;2023-09-30T11:44:13;26.10;99.90
19908;DHT22;10116;53.112;7.356;2023-09-30T11:46:59;26.10;99.90
19908;DHT22;10116;53.112;7.356;2023-09-30T11:51:59;26.10;99.90
19908;DHT22;10116;53.112;7.356;2023-09-30T11:54:38;26.10;99.90
19908;DHT22;10116;53.112;7.356;2023-09-30T11:57:07;26.10;99.90
19908;DHT22;10116;53.112;7.356;2023-09-30T11:59:37;26.10;99.90
19908;DHT22;10116;53.112;7.356;2023-09-30T12:02:03;26.10;99.90
19908;DHT22;10116;53.112;7.356;2023-09-30T12:04:31;26.10;99.90
19908;DHT22;10116;53.112;7.356;2023-09-30T12:06:57;26.10;99.90
19908;DHT22;10116;53.112;7.356;2023-09-30T12:09:23;26.10;99.90
19908;DHT22;10116;53.112;7.356;2023-09-30T12:11:52;26.10;99.90
19908;DHT22;10116;53.112;7.356;2023-09-30T12:14:19;26.10;99.90
19908;DHT22;10116;53.112;7.356;2023-09-30T12:16:46;26.20;99.90
19908;DHT22;10116;53.112;7.356;2023-09-30T12:19:16;26.10;99.90
19908;DHT22;10116;53.112;7.356;2023-09-30T12:21:44;26.10;99.90
19908;DHT22;10116;53.112;7.356;2023-09-30T12:24:13;26.10;99.90
19908;DHT22;10116;53.112;7.356;2023-09-30T12:26:46;26.20;99.90
19908;DHT22;10116;53.112;7.356;2023-09-30T12:29:23;26.10;99.90
19908;DHT22;10116;53.112;7.356;2023-09-30T12:31:51;26.20;99.90
19908;DHT22;10116;53.112;7.356;2023-09-30T12:34:16;26.20;99.90
19908;DHT22;10116;53.112;7.356;2023-09-30T12:36:43;26.20;99.90
19908;DHT22;10116;53.112;7.356;2023-09-30T12:39:10;26.20;99.90
19908;DHT22;10116;53.112;7.356;2023-09-30T12:41:42;26.20;99.90
19908;DHT22;10116;53.112;7.356;2023-09-30T12:44:09;26.20;99.90
19908;DHT22;10116;53.112;7.356;2023-09-30T12:46:35;26.20;99.90
19908;DHT22;10116;53.112;7.356;2023-09-30T12:49:08;26.20;99.90
19908;DHT22;10116;53.112;7.356;2023-09-30T12:51:35;26.20;99.90
19908;DHT22;10116;53.112;7.356;2023-09-30T12:54:02;26.10;99.90
19908;DHT22;10116;53.112;7.356;2023-09-30T12:56:28;26.10;99.90
19908;DHT22;10116;53.112;7.356;2023-09-30T12:58:57;26.10;99.90
19908;DHT22;10116;53.112;7.356;2023-09-30T13:01:23;26.10;99.90
19908;DHT22;10116;53.112;7.356;2023-09-30T13:03:49;26.10;99.90
19908;DHT22;10116;53.112;7.356;2023-09-30T13:06:15;26.10;99.90
19908;DHT22;10116;53.112;7.356;2023-09-30T13:08:41;26.10;99.90
19908;DHT22;10116;53.112;7.356;2023-09-30T13:11:07;26.10;99.90
19908;DHT22;10116;53.112;7.356;2023-09-30T13:13:34;26.10;99.90
19908;DHT22;10116;53.112;7.356;2023-09-30T13:16:01;26.10;99.90
19908;DHT22;10116;53.112;7.356;2023-09-30T13:18:27;26.10;99.90
19908;DHT22;10116;53.112;7.356;2023-09-30T13:20:52;26.10;99.90
19908;DHT22;10116;53.112;7.356;2023-09-30T13:23:19;26.20;99.90
19908;DHT22;10116;53.112;7.356;2023-09-30T13:25:45;26.20;99.90
19908;DHT22;10116;53.112;7.356;2023-09-30T13:28:11;26.20;99.90
19908;DHT22;10116;53.112;7.356;2023-09-30T13:30:37;26.20;99.90
19908;DHT22;10116;53.112;7.356;2023-09-30T13:33:04;26.20;99.90
19908;DHT22;10116;53.112;7.356;2023-09-30T13:35:30;26.20;99.90
19908;DHT22;10116;53.112;7.356;2023-09-30T13:37:57;26.20;99.90
19908;DHT22;10116;53.112;7.356;2023-09-30T13:40:23;26.20;99.90
19908;DHT22;10116;53.112;7.356;2023-09-30T13:42:49;26.10;99.90
19908;DHT22;10116;53.112;7.356;2023-09-30T13:45:15;26.10;99.90
19908;DHT22;10116;53.112;7.356;2023-09-30T13:47:43;26.10;99.90
19908;DHT22;10116;53.112;7.356;2023-09-30T13:50:09;26.10;99.90
19908;DHT22;10116;53.112;7.356;2023-09-30T13:52:35;26.00;99.90
19908;DHT22;10116;53.112;7.356;2023-09-30T13:55:01;26.00;99.90
19908;DHT22;10116;53.112;7.356;2023-09-30T13:57:28;26.00;99.90
19908;DHT22;10116;53.112;7.356;2023-09-30T13:59:53;26.00;99.90
19908;DHT22;10116;53.112;7.356;2023-09-30T14:02:19;26.00;99.90
19908;DHT22;10116;53.112;7.356;2023-09-30T14:04:45;26.00;99.90
19908;DHT22;10116;53.112;7.356;2023-09-30T14:07:10;26.00;99.90
19908;DHT22;10116;53.112;7.356;2023-09-30T14:09:36;26.00;99.90
19908;DHT22;10116;53.112;7.356;2023-09-30T14:12:03;26.00;99.90
19908;DHT22;10116;53.112;7.356;2023-09-30T14:14:33;26.00;99.90
19908;DHT22;10116;53.112;7.356;2023-09-30T14:16:59;26.00;99.90
19908;DHT22;10116;53.112;7.356;2023-09-30T14:19:25;26.00;99.90
19908;DHT22;10116;53.112;7.356;2023-09-30T14:21:51;26.00;99.90
19908;DHT22;10116;53.112;7.356;2023-09-30T14:24:17;26.00;99.90
19908;DHT22;10116;53.112;7.356;2023-09-30T14:26:42;26.00;99.90
19908;DHT22;10116;53.112;7.356;2023-09-30T14:29:09;26.00;99.90
19908;DHT22;10116;53.112;7.356;2023-09-30T14:31:38;26.00;99.90
19908;DHT22;10116;53.112;7.356;2023-09-30T14:34:03;26.00;99.90
19908;DHT22;10116;53.112;7.356;2023-09-30T14:36:30;26.00;99.90
19908;DHT22;10116;53.112;7.356;2023-09-30T14:38:58;26.00;99.90
19908;DHT22;10116;53.112;7.356;2023-09-30T14:41:24;26.00;99.90
19908;DHT22;10116;53.112;7.356;2023-09-30T14:43:50;26.00;99.90
19908;DHT22;10116;53.112;7.356;2023-09-30T14:46:16;26.00;99.90
19908;DHT22;10116;53.112;7.356;2023-09-30T14:48:41;26.00;99.90
19908;DHT22;10116;53.112;7.356;2023-09-30T14:51:09;26.00;99.90
19908;DHT22;10116;53.112;7.356;2023-09-30T14:53:35;26.00;99.90
19908;DHT22;10116;53.112;7.356;2023-09-30T14:56:00;26.10;99.90
19908;DHT22;10116;53.112;7.356;2023-09-30T14:58:26;26.10;99.90
19908;DHT22;10116;53.112;7.356;2023-09-30T15:00:52;26.10;99.90
19908;DHT22;10116;53.112;7.356;2023-09-30T15:03:19;26.10;99.90
19908;DHT22;10116;53.112;7.356;2023-09-30T15:05:47;26.20;99.90
19908;DHT22;10116;53.112;7.356;2023-09-30T15:08:14;26.20;99.90
19908;DHT22;10116;53.112;7.356;2023-09-30T15:10:41;26.20;99.90
19908;DHT22;10116;53.112;7.356;2023-09-30T15:13:07;26.20;99.90
19908;DHT22;10116;53.112;7.356;2023-09-30T15:15:37;26.20;99.90
19908;DHT22;10116;53.112;7.356;2023-09-30T15:18:03;26.20;99.90
19908;DHT22;10116;53.112;7.356;2023-09-30T15:20:30;26.20;99.90
19908;DHT22;10116;53.112;7.356;2023-09-30T15:22:56;26.20;99.90
19908;DHT22;10116;53.112;7.356;2023-09-30T15:25:22;26.20;99.90
19908;DHT22;10116;53.112;7.356;2023-09-30T15:27:47;26.20;99.90
19908;DHT22;10116;53.112;7.356;2023-09-30T15:30:13;26.20;99.90
19908;DHT22;10116;53.112;7.356;2023-09-30T15:32:40;26.20;99.90
19908;DHT22;10116;53.112;7.356;2023-09-30T15:35:07;26.30;99.90
19908;DHT22;10116;53.112;7.356;2023-09-30T15:37:33;26.20;99.90
19908;DHT22;10116;53.112;7.356;2023-09-30T15:39:59;26.20;99.90
19908;DHT22;10116;53.112;7.356;2023-09-30T15:42:25;26.20;99.90
19908;DHT22;10116;53.112;7.356;2023-09-30T15:44:51;26.20;99.90
19908;DHT22;10116;53.112;7.356;2023-09-30T15:47:22;26.20;99.90
19908;DHT22;10116;53.112;7.356;2023-09-30T15:49:47;26.20;99.90
19908;DHT22;10116;53.112;7.356;2023-09-30T15:52:13;26.20;99.90
19908;DHT22;10116;53.112;7.356;2023-09-30T15:54:39;26.20;99.90